Terminal Aerodrome Forecast
Issued by NWS Knoxville/Tri Cities, TN

Home | Current Version | Previous Version | Text Only | Print | Product List | Glossary On
Versions: 1 2 3 4 5 6 7 8 9 10 11 12 13 14 15 16 17 18 19 20 21 22 23 24 25 26 27 28 29 30 31 32 33 34
000
FTUS44 KMRX 041720
TAFTRI
TAF
KTRI 041720Z 0418/0518 25012KT P6SM BKN070
     FM042300 28012G20KT P6SM -RA SCT050 BKN060
     FM050100 30010KT 4SM -SHRA BR OVC025
     FM050600 31010KT P6SM VCSH OVC020
     FM051300 32009KT P6SM OVC015=

USA.gov is the U.S. government's official web portal to all federal, state and local government web resources and services.